Flight Track Log - Related Links

Times and Time Zones

All times are in EDT time to prevent confusion due to time zone crossing. See the GJS3710 flight status page for this flight to view local times or setup timezone preferences in your user account.

Time Position Orientation Groundspeed Altitude Reporting Facility
EDT Latitude Longitude Course Direction KTS MPH feet Rate Location/Type
Thu 03:45:22 PM 29.9886 -90.2511 North 148 170 700  Level Houston Center
Thu 03:46:11 PM 29.9789 -90.2081 105° East 173 199 2,000 1,606 Climbing Houston Center
Thu 03:46:33 PM 29.9781 -90.1939 94° East 177 204 2,600 2,418 Climbing Houston Center
Thu 03:47:18 PM 29.9725 -90.1364 96° East 231 266 4,700 2,323 Climbing Houston Center
Thu 03:47:35 PM 29.9808 -90.1281 41° Northeast 206 237 5,000 1,869 Climbing Houston Center
Thu 03:48:19 PM 30.0350 -90.1361 353° North 267 307 6,600 1,935 Climbing Houston Center
Thu 03:48:37 PM 30.0472 -90.1428 335° Northwest 244 281 7,000 1,875 Climbing Houston Center
Thu 03:49:00 PM 30.4794 -90.4500 North  Level FlightAware Approximate
Thu 03:49:39 PM 30.1186 -90.1844 333° Northwest 276 318 9,100  Level Houston Center
Thu 03:50:00 PM 30.5874 -90.4440 North  Level FlightAware Approximate
Thu 03:50:41 PM 30.2114 -90.2378 334° Northwest 300 345 11,700  Level Houston Center
Thu 03:51:43 PM 30.2967 -90.2842 335° Northwest 327 376 13,700 1,968 Climbing Houston Center
Thu 03:52:46 PM 30.3867 -90.3342 334° Northwest 351 404 15,800 1,872 Climbing Houston Center
Thu 03:53:48 PM 30.4767 -90.3869 333° Northwest 360 414 17,600 1,742 Climbing Houston Center
Thu 03:54:50 PM 30.5683 -90.4414 333° Northwest 366 421 19,400 1,872 Climbing Houston Center
Thu 03:55:53 PM 30.6628 -90.4889 337° Northwest 369 425 21,500 1,984 Climbing Houston Center
Thu 03:56:54 PM 30.7833 -90.5067 353° North 382 440 23,500 1,610 Climbing Houston Center
Thu 03:57:56 PM 30.8931 -90.4978 North 390 449 24,800 1,104 Climbing Houston Center
Thu 03:58:59 PM 31.0069 -90.4886 North 404 465 25,800 960 Climbing Houston Center
Thu 04:00:01 PM 31.1253 -90.4783 North 420 483 26,800 968 Climbing Houston Center
Thu 04:01:03 PM 31.2439 -90.4700 North 424 488 27,800 968 Climbing Houston Center
Thu 04:02:05 PM 31.3661 -90.4589 North 436 502 28,800 1,065 Climbing Houston Center
Thu 04:03:07 PM 31.5136 -90.4467 North 441 507 30,000 1,065 Climbing Houston Center
Thu 04:04:09 PM 31.6356 -90.4364 North 440 506 31,000 871 Climbing Houston Center
Thu 04:05:11 PM 31.7583 -90.4256 North 440 506 31,800 720 Climbing Houston Center
Thu 04:06:14 PM 31.8825 -90.4156 North 443 510 32,500 732 Climbing Houston Center
Thu 04:06:33 PM 31.9328 -90.4111 North 443 510 32,800 835 Climbing Memphis Center
Thu 04:07:33 PM 32.0456 -90.3989 North 448 516 33,600 807 Climbing Memphis Center
Thu 04:08:32 PM 32.1689 -90.3917 North 448 516 34,400 807 Climbing Memphis Center
Thu 04:09:32 PM 32.2942 -90.3794 North 443 510 35,200 800 Climbing Memphis Center
Thu 04:10:32 PM 32.4131 -90.3697 North 438 504 36,000 800 Climbing Memphis Center
Thu 04:11:32 PM 32.5342 -90.3597 North 438 504 36,800 500 Climbing Memphis Center
Thu 04:12:32 PM 32.6531 -90.3500 North 433 498 37,000 100 Climbing Memphis Center
Thu 04:13:32 PM 32.7722 -90.3400 North 428 493 37,000  Level Memphis Center
Thu 04:14:32 PM 32.8933 -90.3300 North 428 493 37,000  Level Memphis Center
Thu 04:15:33 PM 33.0122 -90.3175 North 423 487 37,000  Level Memphis Center
Thu 04:16:32 PM 33.1311 -90.3100 North 423 487 37,000  Level Memphis Center
Thu 04:17:32 PM 33.2586 -90.2975 North 423 487 37,000  Level Memphis Center
Thu 04:18:32 PM 33.3775 -90.2875 North 423 487 37,000  Level Memphis Center
Thu 04:19:32 PM 33.4839 -90.2750 North 423 487 37,000  Level Memphis Center
Thu 04:20:32 PM 33.5986 -90.2525 North 423 487 37,000 50 Level Memphis Center
Thu 04:21:32 PM 33.7178 -90.2322 North 428 493 37,100 450 Climbing Memphis Center
Thu 04:22:32 PM 33.8325 -90.2122 North 428 493 37,900 700 Climbing Memphis Center
Thu 04:23:32 PM 33.9431 -90.1869 11° North 414 476 38,500 550 Climbing Memphis Center
Thu 04:24:32 PM 34.0703 -90.1667 North 414 476 39,000 250 Climbing Memphis Center
Thu 04:25:32 PM 34.1872 -90.1436 North 414 476 39,000  Level Memphis Center
Thu 04:26:33 PM 34.2997 -90.1233 North 408 470 39,000  Level Memphis Center
Thu 04:27:32 PM 34.4167 -90.1003 North 418 481 39,000  Level Memphis Center
Thu 04:28:32 PM 34.5314 -90.0797 North 424 488 39,000  Level Memphis Center
Thu 04:29:32 PM 34.6503 -90.0592 North 429 494 39,000  Level Memphis Center
Thu 04:30:32 PM 34.7692 -90.0361 North 429 494 39,000  Level Memphis Center
Thu 04:31:32 PM 34.8775 -90.0178 North 429 494 39,000  Level Memphis Center
Thu 04:32:32 PM 34.9922 -90.0225 358° North 416 479 39,000  Level Memphis Center
Thu 04:33:32 PM 35.0986 -90.0475 349° North 397 457 39,000  Level Memphis Center
Thu 04:34:32 PM 35.2094 -90.0750 349° North 392 451 39,000  Level Memphis Center
Thu 04:35:32 PM 35.3264 -90.1025 349° North 392 451 39,000  Level Memphis Center
Thu 04:36:33 PM 35.4328 -90.1278 349° North 392 451 39,000  Level Memphis Center
Thu 04:37:32 PM 35.5369 -90.1556 348° North 392 451 39,000  Level Memphis Center
Thu 04:38:32 PM 35.6475 -90.1808 349° North 397 457 39,000  Level Memphis Center
Thu 04:39:32 PM 35.7478 -90.2086 347° North 391 450 39,000  Level Memphis Center
Thu 04:40:32 PM 35.8375 -90.2317 348° North 389 448 39,000  Level Memphis Center
Thu 04:41:32 PM 35.9564 -90.2622 348° North 394 453 39,000  Level Memphis Center
Thu 04:42:32 PM 36.0689 -90.2903 349° North 394 453 39,000  Level Memphis Center
Thu 04:43:32 PM 36.1794 -90.3183 348° North 399 459 39,000  Level Memphis Center
Thu 04:44:33 PM 36.2919 -90.3467 349° North 404 465 39,000  Level Memphis Center
Thu 04:45:32 PM 36.4047 -90.3775 348° North 410 472 39,000  Level Memphis Center
Thu 04:46:32 PM 36.5150 -90.4061 348° North 410 472 39,000  Level Memphis Center
Thu 04:47:32 PM 36.6297 -90.4369 348° North 410 472 39,000  Level Memphis Center
Thu 04:48:32 PM 36.7464 -90.4656 349° North 410 472 39,000  Level Memphis Center
Thu 04:50:13 PM 36.9575 -90.5133 350° North 427 491 39,000  Level Kansas City Center
Thu 04:51:15 PM 37.0758 -90.5439 348° North 431 496 39,000  Level Kansas City Center
Thu 04:52:17 PM 37.1961 -90.5739 349° North 435 501 39,000  Level Kansas City Center
Thu 04:53:20 PM 37.3142 -90.6058 348° North 434 499 39,000  Level Kansas City Center
Thu 04:54:22 PM 37.4233 -90.6344 348° North 436 502 39,000  Level Kansas City Center
Thu 04:55:24 PM 37.5683 -90.6711 349° North 441 507 39,000  Level Kansas City Center
Thu 04:56:26 PM 37.6897 -90.7042 348° North 444 511 39,000  Level Kansas City Center
Thu 04:57:28 PM 37.8117 -90.7369 348° North 447 514 39,000  Level Kansas City Center
Thu 04:58:30 PM 37.9347 -90.7700 348° North 450 518 39,000  Level Kansas City Center
Thu 04:59:32 PM 38.0600 -90.8019 349° North 452 520 39,000 -48 Level Kansas City Center
Thu 05:00:34 PM 38.1869 -90.8375 348° North 458 527 38,900 -339 Descending Kansas City Center
Thu 05:01:36 PM 38.3153 -90.8700 349° North 461 531 38,300 -435 Descending Kansas City Center
Thu 05:02:38 PM 38.4722 -90.9114 348° North 467 537 38,000 -145 Descending Kansas City Center
Thu 05:03:40 PM 38.6033 -90.9214 357° North 472 543 38,000 -194 Level Kansas City Center
Thu 05:04:42 PM 38.7278 -90.8706 18° North 468 539 37,600 -484 Descending Kansas City Center
Thu 05:05:44 PM 38.8503 -90.8094 21° North 466 536 37,000 -290 Descending Kansas City Center
Thu 05:06:46 PM 38.9733 -90.7472 21° North 469 540 37,000  Level Kansas City Center
Thu 05:07:48 PM 39.0978 -90.6842 21° North 474 545 37,000  Level Kansas City Center
Thu 05:08:50 PM 39.2225 -90.6172 23° Northeast 482 555 37,000  Level Kansas City Center
Thu 05:09:52 PM 39.3478 -90.5519 22° Northeast 483 556 37,000 -484 Level Kansas City Center
Thu 05:10:54 PM 39.4978 -90.4758 21° North 482 555 36,000 -871 Descending Kansas City Center
Thu 05:11:56 PM 39.6231 -90.4089 22° Northeast 485 558 35,200 -726 Descending Kansas City Center
Thu 05:12:58 PM 39.7386 -90.3481 22° Northeast 487 560 34,500 -726 Descending Kansas City Center
Thu 05:14:00 PM 39.8653 -90.2833 21° North 488 562 33,700 -909 Descending Kansas City Center
Thu 05:14:37 PM 39.9647 -90.2303 22° Northeast 489 563 33,000 -424 Descending Chicago Center
Thu 05:15:39 PM 40.0894 -90.1658 22° Northeast 483 556 33,000  Level Chicago Center
Thu 05:16:41 PM 40.2108 -90.1003 22° Northeast 475 547 33,000  Level Chicago Center
Thu 05:17:43 PM 40.3331 -90.0356 22° Northeast 473 544 33,000  Level Chicago Center
Thu 05:18:45 PM 40.4564 -89.9694 22° Northeast 477 549 33,000  Level Chicago Center
Thu 05:19:47 PM 40.5878 -89.8994 22° Northeast 481 554 33,000 -145 Level Chicago Center
Thu 05:20:49 PM 40.7119 -89.8314 23° Northeast 482 555 32,700 -1,355 Descending Chicago Center
Thu 05:21:51 PM 40.8378 -89.7639 22° Northeast 485 558 30,200 -2,661 Descending Chicago Center
Thu 05:22:53 PM 40.9900 -89.6833 22° Northeast 489 563 27,200 -2,516 Descending Chicago Center
Thu 05:23:55 PM 41.0881 -89.6231 25° Northeast 464 534 25,000 -2,323 Descending Chicago Center
Thu 05:24:57 PM 41.1728 -89.4606 55° Northeast 443 510 22,400 -2,274 Descending Chicago Center
Thu 05:25:59 PM 41.2322 -89.3306 59° Northeast 415 478 20,300 -2,129 Descending Chicago Center
Thu 05:27:01 PM 41.2922 -89.2008 58° Northeast 411 473 18,000 -2,304 Descending Chicago Center
Thu 05:28:04 PM 41.3539 -89.0597 60° Northeast 399 459 15,500 -2,256 Descending Chicago Center
Thu 05:29:06 PM 41.4103 -88.9356 59° Northeast 396 456 13,300 -1,984 Descending Chicago Center
Thu 05:30:08 PM 41.4650 -88.8153 59° Northeast 383 441 11,400 -1,113 Descending Chicago Center
Thu 05:31:10 PM 41.5167 -88.6983 59° Northeast 367 422 11,000 -194 Descending Chicago Center
Thu 05:32:12 PM 41.5667 -88.5753 61° Northeast 378 435 11,000 -48 Level Chicago Center
Thu 05:33:14 PM 41.6317 -88.4664 51° Northeast 379 436 10,900 -581 Descending Chicago Center
Thu 05:34:16 PM 41.7019 -88.3600 48° Northeast 312 359 9,800 -919 Descending Chicago Center
Thu 05:35:18 PM 41.7544 -88.2764 50° Northeast 294 338 9,000 -677 Descending Chicago Center
Thu 05:36:20 PM 41.8075 -88.1911 50° Northeast 297 342 8,400 -677 Descending Chicago Center
Thu 05:37:22 PM 41.8622 -88.1042 50° Northeast 303 349 7,600 -667 Descending Chicago Center
Thu 05:38:26 PM 41.9500 -88.0833 10° North 267 307 7,000 -435 Descending Chicago TRACON
Thu 05:39:26 PM 42.0167 -88.1000 349° North 252 290 6,700 -600 Descending Chicago TRACON
Thu 05:40:26 PM 42.0667 -88.1667 315° West 245 282 5,800 -900 Descending Chicago TRACON
Thu 05:41:26 PM 42.1167 -88.1333 26° Northeast 217 250 4,900 -1,143 Descending Chicago TRACON
Thu 05:42:32 PM 42.1000 -88.0500 105° East 179 206 3,400 -1,364 Descending Chicago TRACON

Login

Don't have an account? Register now (free) for customized features, flight alerts, and more!